PWSweather.com
Personal Weather Stations
Station Observations
OAK1E
Piedmont Ave District, Oakland, CA 94611

Piedmont Ave DistrictOakland, CA 94611

Lat: 37.832205, Lon: -122.250229

Elevation: 176

Station Type: Davis Vantage Pro 2

http://www.mayacamaswx.com/Oakland1E/Oakland1E.htm

Latest ConditionsUpdated 7:40:00 PM PDT Wednesday, Jul 27, 2016
Currently Today's Max Today's Min Today's Average
Temperature 61.1°F16.2°C 74.9°F23.8°C 54.7°F12.6°C 63.4°F17.4°C
Dew Point 55.2°F12.9°C 60.5°F15.8°C 53.2°F11.8°C 56.7°F13.7°C
Winds 0.6 mph N1.0 kmh N 2.7 mph N4.3 kmh N - 0.7 mph 1.1 kmh
Wind Gusts 1.0 mph1.6 kmh 6.0 mph9.7 kmh - -
Humidity 81% 96% 60% 80%
Pressure 29.89 in1012.2 mb 29.92 in1013.2 mb 29.86 in1011.2 mb -
Hour Temp Dew Point Humidity Winds Wind Gusts Pressure Precip Precip Rate Daily Precip Total
07:40 PM 61.1°F16.2°C 55.2°F12.9°C 81% 0.6 mph N1.0 kmh N 1.0 mph1.6 kmh 29.89 in1012.2 mb - 0.00 in0.0 mm 0.00 in0.0 mm
07:30 PM 61.3°F16.3°C 55.4°F13.0°C 81% 0.5 mph WNW0.8 kmh WNW 2.0 mph3.2 kmh 29.89 in1012.2 mb - 0.00 in0.0 mm 0.00 in0.0 mm
07:20 PM 61.5°F16.4°C 55.3°F12.9°C 80% 1.4 mph NNW2.3 kmh NNW 3.0 mph4.8 kmh 29.89 in1012.2 mb - 0.00 in0.0 mm 0.00 in0.0 mm
07:10 PM 62.1°F16.7°C 55.5°F13.1°C 79% 2.6 mph NNE4.2 kmh NNE 5.0 mph8.0 kmh 29.88 in1011.9 mb - 0.00 in0.0 mm 0.00 in0.0 mm
07:00 PM 62.4°F16.9°C 55.4°F13.0°C 78% 0.9 mph NNW1.4 kmh NNW 4.0 mph6.4 kmh 29.88 in1011.9 mb - 0.00 in0.0 mm 0.00 in0.0 mm
06:50 PM 62.3°F16.8°C 55.7°F13.2°C 79% 0.2 mph NNW0.3 kmh NNW 1.0 mph1.6 kmh 29.88 in1011.9 mb - 0.00 in0.0 mm 0.00 in0.0 mm
06:40 PM 62.8°F17.1°C 55.5°F13.1°C 77% 2.4 mph NW3.9 kmh NW 5.0 mph8.0 kmh 29.88 in1011.9 mb - 0.00 in0.0 mm 0.00 in0.0 mm
06:30 PM 63.7°F17.6°C 56.0°F13.3°C 76% 2.2 mph NE3.5 kmh NE 5.0 mph8.0 kmh 29.88 in1011.9 mb - 0.00 in0.0 mm 0.00 in0.0 mm
06:20 PM 64.9°F18.3°C 56.4°F13.6°C 74% 2.1 mph E3.4 kmh E 3.0 mph4.8 kmh 29.88 in1011.9 mb - 0.00 in0.0 mm 0.00 in0.0 mm
06:10 PM 65.9°F18.8°C 56.6°F13.7°C 72% 0.9 mph N1.4 kmh N 3.0 mph4.8 kmh 29.88 in1011.9 mb - 0.00 in0.0 mm 0.00 in0.0 mm
06:00 PM 66.8°F19.3°C 57.1°F13.9°C 71% 1.5 mph NNE2.4 kmh NNE 3.0 mph4.8 kmh 29.88 in1011.9 mb - 0.00 in0.0 mm 0.00 in0.0 mm
05:50 PM 67.7°F19.8°C 57.6°F14.2°C 70% 1.9 mph N3.1 kmh N 6.0 mph9.7 kmh 29.88 in1011.9 mb - 0.00 in0.0 mm 0.00 in0.0 mm
05:40 PM 67.9°F19.9°C 57.4°F14.1°C 69% 0.8 mph NNW1.3 kmh NNW 2.0 mph3.2 kmh 29.88 in1011.9 mb - 0.00 in0.0 mm 0.00 in0.0 mm
05:30 PM 67.9°F19.9°C 57.8°F14.3°C 70% 1.0 mph NNW1.6 kmh NNW 2.0 mph3.2 kmh 29.88 in1011.9 mb - 0.00 in0.0 mm 0.00 in0.0 mm
05:20 PM 68.2°F20.1°C 57.7°F14.3°C 69% 2.3 mph NW3.7 kmh NW 4.0 mph6.4 kmh 29.88 in1011.9 mb - 0.00 in0.0 mm 0.00 in0.0 mm
05:10 PM 69.0°F20.6°C 57.6°F14.2°C 67% 1.7 mph N2.7 kmh N 2.0 mph3.2 kmh 29.88 in1011.9 mb - 0.00 in0.0 mm 0.00 in0.0 mm
05:00 PM 70.6°F21.4°C 58.3°F14.6°C 65% 1.2 mph NNW1.9 kmh NNW 5.0 mph8.0 kmh 29.88 in1011.9 mb - 0.00 in0.0 mm 0.00 in0.0 mm
04:50 PM 71.3°F21.8°C 58.5°F14.7°C 64% 1.3 mph N2.1 kmh N 2.0 mph3.2 kmh 29.88 in1011.9 mb - 0.00 in0.0 mm 0.00 in0.0 mm
04:40 PM 71.7°F22.1°C 58.4°F14.7°C 63% 0.4 mph N0.6 kmh N 3.0 mph4.8 kmh 29.88 in1011.9 mb - 0.00 in0.0 mm 0.00 in0.0 mm
04:30 PM 72.2°F22.3°C 58.9°F14.9°C 63% 1.5 mph NNW2.4 kmh NNW 2.0 mph3.2 kmh 29.89 in1012.2 mb - 0.00 in0.0 mm 0.00 in0.0 mm
04:20 PM 72.1°F22.3°C 59.2°F15.1°C 64% 1.1 mph NNW1.8 kmh NNW 4.0 mph6.4 kmh 29.88 in1011.9 mb - 0.00 in0.0 mm 0.00 in0.0 mm
04:10 PM 71.4°F21.9°C 58.5°F14.7°C 64% 0.6 mph N1.0 kmh N 2.0 mph3.2 kmh 29.89 in1012.2 mb - 0.00 in0.0 mm 0.00 in0.0 mm
04:00 PM 71.3°F21.8°C 58.1°F14.5°C 63% 0.7 mph NNE1.1 kmh NNE 2.0 mph3.2 kmh 29.89 in1012.2 mb - 0.00 in0.0 mm 0.00 in0.0 mm
03:50 PM 72.2°F22.3°C 58.4°F14.7°C 62% 2.7 mph N4.3 kmh N 4.0 mph6.4 kmh 29.89 in1012.2 mb - 0.00 in0.0 mm 0.00 in0.0 mm
03:40 PM 72.8°F22.7°C 59.0°F15.0°C 62% 0.7 mph NW1.1 kmh NW 3.0 mph4.8 kmh 29.89 in1012.2 mb - 0.00 in0.0 mm 0.00 in0.0 mm
03:30 PM 73.5°F23.1°C 59.2°F15.1°C 61% 0.9 mph N1.4 kmh N 5.0 mph8.0 kmh 29.89 in1012.2 mb - 0.00 in0.0 mm 0.00 in0.0 mm
03:20 PM 73.9°F23.3°C 59.6°F15.3°C 61% 0.6 mph NNE1.0 kmh NNE 2.0 mph3.2 kmh 29.89 in1012.2 mb - 0.00 in0.0 mm 0.00 in0.0 mm
03:10 PM 74.0°F23.3°C 59.2°F15.1°C 60% 1.3 mph NNE2.1 kmh NNE 2.0 mph3.2 kmh 29.89 in1012.2 mb - 0.00 in0.0 mm 0.00 in0.0 mm
03:00 PM 74.1°F23.4°C 59.3°F15.2°C 60% 0.7 mph N1.1 kmh N 2.0 mph3.2 kmh 29.89 in1012.2 mb - 0.00 in0.0 mm 0.00 in0.0 mm
02:50 PM 74.1°F23.4°C 59.8°F15.4°C 61% 0.9 mph NNE1.4 kmh NNE 2.0 mph3.2 kmh 29.90 in1012.5 mb - 0.00 in0.0 mm 0.00 in0.0 mm
02:40 PM 74.0°F23.3°C 59.7°F15.4°C 61% 1.2 mph NNE1.9 kmh NNE 3.0 mph4.8 kmh 29.90 in1012.5 mb - 0.00 in0.0 mm 0.00 in0.0 mm
02:30 PM 74.1°F23.4°C 59.8°F15.4°C 61% 0.6 mph NNW1.0 kmh NNW 2.0 mph3.2 kmh 29.90 in1012.5 mb - 0.00 in0.0 mm 0.00 in0.0 mm
02:20 PM 74.3°F23.5°C 60.0°F15.6°C 61% 1.1 mph NE1.8 kmh NE 3.0 mph4.8 kmh 29.90 in1012.5 mb - 0.00 in0.0 mm 0.00 in0.0 mm
02:10 PM 74.2°F23.4°C 59.9°F15.5°C 61% 0.7 mph NNE1.1 kmh NNE 2.0 mph3.2 kmh 29.90 in1012.5 mb - 0.00 in0.0 mm 0.00 in0.0 mm
02:00 PM 74.6°F23.7°C 59.8°F15.4°C 60% 1.4 mph N2.3 kmh N 4.0 mph6.4 kmh 29.91 in1012.9 mb - 0.00 in0.0 mm 0.00 in0.0 mm
01:50 PM 74.9°F23.8°C 60.5°F15.8°C 61% 1.1 mph N1.8 kmh N 3.0 mph4.8 kmh 29.91 in1012.9 mb - 0.00 in0.0 mm 0.00 in0.0 mm
01:40 PM 74.7°F23.7°C 60.4°F15.8°C 61% 1.2 mph N1.9 kmh N 3.0 mph4.8 kmh 29.91 in1012.9 mb - 0.00 in0.0 mm 0.00 in0.0 mm
01:30 PM 73.6°F23.1°C 59.8°F15.4°C 62% 0.6 mph N1.0 kmh N 2.0 mph3.2 kmh 29.91 in1012.9 mb - 0.00 in0.0 mm 0.00 in0.0 mm
01:20 PM 73.1°F22.8°C 59.8°F15.4°C 63% 1.1 mph N1.8 kmh N 2.0 mph3.2 kmh 29.91 in1012.9 mb - 0.00 in0.0 mm 0.00 in0.0 mm
01:10 PM 72.3°F22.4°C 59.9°F15.5°C 65% 0.6 mph N1.0 kmh N 3.0 mph4.8 kmh 29.91 in1012.9 mb - 0.00 in0.0 mm 0.00 in0.0 mm
01:00 PM 71.7°F22.1°C 60.1°F15.6°C 67% 0.8 mph NNE1.3 kmh NNE 4.0 mph6.4 kmh 29.91 in1012.9 mb - 0.00 in0.0 mm 0.00 in0.0 mm
12:50 PM 71.0°F21.7°C 59.5°F15.3°C 67% 2.0 mph NNW3.2 kmh NNW 5.0 mph8.0 kmh 29.91 in1012.9 mb - 0.00 in0.0 mm 0.00 in0.0 mm
12:40 PM 70.8°F21.6°C 59.7°F15.4°C 68% 0.9 mph N1.4 kmh N 5.0 mph8.0 kmh 29.91 in1012.9 mb - 0.00 in0.0 mm 0.00 in0.0 mm
12:30 PM 70.6°F21.4°C 59.5°F15.3°C 68% 1.4 mph NE2.3 kmh NE 4.0 mph6.4 kmh 29.91 in1012.9 mb - 0.00 in0.0 mm 0.00 in0.0 mm
12:20 PM 70.1°F21.2°C 59.1°F15.1°C 68% 1.1 mph NE1.8 kmh NE 3.0 mph4.8 kmh 29.91 in1012.9 mb - 0.00 in0.0 mm 0.00 in0.0 mm
12:10 PM 70.2°F21.2°C 59.9°F15.5°C 70% 0.4 mph N0.6 kmh N 3.0 mph4.8 kmh 29.92 in1013.2 mb - 0.00 in0.0 mm 0.00 in0.0 mm
12:00 PM 69.5°F20.8°C 59.3°F15.2°C 70% 0.8 mph N1.3 kmh N 4.0 mph6.4 kmh 29.92 in1013.2 mb - 0.00 in0.0 mm 0.00 in0.0 mm
11:50 AM 68.9°F20.5°C 59.5°F15.3°C 72% 0.3 mph N0.5 kmh N 1.0 mph1.6 kmh 29.92 in1013.2 mb - 0.00 in0.0 mm 0.00 in0.0 mm
11:40 AM 68.4°F20.2°C 59.4°F15.2°C 73% 0.1 mph N0.2 kmh N -- 29.92 in1013.2 mb - 0.00 in0.0 mm 0.00 in0.0 mm
11:30 AM 68.3°F20.2°C 59.3°F15.2°C 73% 0.7 mph NE1.1 kmh NE 3.0 mph4.8 kmh 29.92 in1013.2 mb - 0.00 in0.0 mm 0.00 in0.0 mm
11:20 AM 68.6°F20.3°C 59.6°F15.3°C 73% 1.6 mph N2.6 kmh N 4.0 mph6.4 kmh 29.92 in1013.2 mb - 0.00 in0.0 mm 0.00 in0.0 mm
11:10 AM 68.1°F20.1°C 59.5°F15.3°C 74% 0.7 mph N1.1 kmh N 2.0 mph3.2 kmh 29.92 in1013.2 mb - 0.00 in0.0 mm 0.00 in0.0 mm
11:00 AM 67.6°F19.8°C 59.4°F15.2°C 75% 1.1 mph N1.8 kmh N 3.0 mph4.8 kmh 29.91 in1012.9 mb - 0.00 in0.0 mm 0.00 in0.0 mm
10:50 AM 66.8°F19.3°C 59.0°F15.0°C 76% 0.5 mph N0.8 kmh N 1.0 mph1.6 kmh 29.91 in1012.9 mb - 0.00 in0.0 mm 0.00 in0.0 mm
10:40 AM 66.1°F18.9°C 58.7°F14.8°C 77% 0.5 mph NW0.8 kmh NW 2.0 mph3.2 kmh 29.91 in1012.9 mb - 0.00 in0.0 mm 0.00 in0.0 mm
10:30 AM 65.5°F18.6°C 58.5°F14.7°C 78% 0.2 mph NE0.3 kmh NE 1.0 mph1.6 kmh 29.92 in1013.2 mb - 0.00 in0.0 mm 0.00 in0.0 mm
10:20 AM 65.0°F18.3°C 58.3°F14.6°C 79% 0.3 mph NE0.5 kmh NE 2.0 mph3.2 kmh 29.91 in1012.9 mb - 0.00 in0.0 mm 0.00 in0.0 mm
10:10 AM 64.7°F18.2°C 58.4°F14.7°C 80% 0.3 mph NE0.5 kmh NE 2.0 mph3.2 kmh 29.91 in1012.9 mb - 0.00 in0.0 mm 0.00 in0.0 mm
10:00 AM 64.3°F17.9°C 58.3°F14.6°C 81% 0.3 mph N0.5 kmh N 1.0 mph1.6 kmh 29.91 in1012.9 mb - 0.00 in0.0 mm 0.00 in0.0 mm
09:50 AM 63.9°F17.7°C 58.0°F14.4°C 81% 1.1 mph NNE1.8 kmh NNE 2.0 mph3.2 kmh 29.91 in1012.9 mb - 0.00 in0.0 mm 0.00 in0.0 mm
09:40 AM 63.5°F17.5°C 57.9°F14.4°C 82% 0.5 mph N0.8 kmh N 1.0 mph1.6 kmh 29.91 in1012.9 mb - 0.00 in0.0 mm 0.00 in0.0 mm
09:30 AM 63.0°F17.2°C 57.7°F14.3°C 83% 0.1 mph N0.2 kmh N 2.0 mph3.2 kmh 29.91 in1012.9 mb - 0.00 in0.0 mm 0.00 in0.0 mm
09:20 AM 62.2°F16.8°C 57.6°F14.2°C 85% 0.3 mph NW0.5 kmh NW 1.0 mph1.6 kmh 29.91 in1012.9 mb - 0.00 in0.0 mm 0.00 in0.0 mm
09:10 AM 61.2°F16.2°C 57.3°F14.1°C 87% 0.1 mph NNE0.2 kmh NNE 1.0 mph1.6 kmh 29.91 in1012.9 mb - 0.00 in0.0 mm 0.00 in0.0 mm
09:00 AM 60.4°F15.8°C 57.4°F14.1°C 90% Calm Calm -- 29.91 in1012.9 mb - 0.00 in0.0 mm 0.00 in0.0 mm
08:50 AM 59.3°F15.2°C 57.0°F13.9°C 92% 0.6 mph NNE1.0 kmh NNE 2.0 mph3.2 kmh 29.91 in1012.9 mb - 0.00 in0.0 mm 0.00 in0.0 mm
08:40 AM 58.6°F14.8°C 56.9°F13.8°C 94% 0.5 mph NNE0.8 kmh NNE 3.0 mph4.8 kmh 29.91 in1012.9 mb - 0.00 in0.0 mm 0.00 in0.0 mm
08:30 AM 57.6°F14.2°C 56.2°F13.4°C 95% 0.8 mph N1.3 kmh N 2.0 mph3.2 kmh 29.91 in1012.9 mb - 0.00 in0.0 mm 0.00 in0.0 mm
08:20 AM 57.1°F13.9°C 55.7°F13.2°C 95% Calm Calm 1.0 mph1.6 kmh 29.91 in1012.9 mb - 0.00 in0.0 mm 0.00 in0.0 mm
08:10 AM 56.5°F13.6°C 55.4°F13.0°C 96% 0.7 mph N1.1 kmh N 2.0 mph3.2 kmh 29.91 in1012.9 mb - 0.00 in0.0 mm 0.00 in0.0 mm
08:00 AM 56.0°F13.3°C 54.9°F12.7°C 96% 0.4 mph N0.6 kmh N 2.0 mph3.2 kmh 29.91 in1012.9 mb - 0.00 in0.0 mm 0.00 in0.0 mm
07:50 AM 55.7°F13.2°C 54.6°F12.6°C 96% 0.3 mph NW0.5 kmh NW 2.0 mph3.2 kmh 29.91 in1012.9 mb - 0.00 in0.0 mm 0.00 in0.0 mm
07:40 AM 55.5°F13.1°C 54.4°F12.4°C 96% 0.1 mph NW0.2 kmh NW -- 29.91 in1012.9 mb - 0.00 in0.0 mm 0.00 in0.0 mm
07:30 AM 55.3°F12.9°C 54.2°F12.3°C 96% 0.5 mph N0.8 kmh N 3.0 mph4.8 kmh 29.90 in1012.5 mb - 0.00 in0.0 mm 0.00 in0.0 mm
07:20 AM 55.0°F12.8°C 53.9°F12.2°C 96% 0.3 mph N0.5 kmh N 2.0 mph3.2 kmh 29.90 in1012.5 mb - 0.00 in0.0 mm 0.00 in0.0 mm
07:10 AM 54.8°F12.7°C 53.7°F12.1°C 96% 0.3 mph NNW0.5 kmh NNW 2.0 mph3.2 kmh 29.89 in1012.2 mb - 0.00 in0.0 mm 0.00 in0.0 mm
07:00 AM 54.7°F12.6°C 53.6°F12.0°C 96% 0.2 mph NW0.3 kmh NW 1.0 mph1.6 kmh 29.90 in1012.5 mb - 0.00 in0.0 mm 0.00 in0.0 mm
06:50 AM 54.7°F12.6°C 53.3°F11.8°C 95% 0.2 mph NW0.3 kmh NW 2.0 mph3.2 kmh 29.89 in1012.2 mb - 0.00 in0.0 mm 0.00 in0.0 mm
06:40 AM 54.7°F12.6°C 53.3°F11.8°C 95% 0.4 mph NW0.6 kmh NW 2.0 mph3.2 kmh 29.89 in1012.2 mb - 0.00 in0.0 mm 0.00 in0.0 mm
06:30 AM 54.8°F12.7°C 53.4°F11.9°C 95% 0.8 mph N1.3 kmh N 2.0 mph3.2 kmh 29.89 in1012.2 mb - 0.00 in0.0 mm 0.00 in0.0 mm
06:20 AM 54.9°F12.7°C 53.2°F11.8°C 94% 0.6 mph NNW1.0 kmh NNW 2.0 mph3.2 kmh 29.89 in1012.2 mb - 0.00 in0.0 mm 0.00 in0.0 mm
06:10 AM 55.0°F12.8°C 53.3°F11.8°C 94% 1.0 mph NW1.6 kmh NW 3.0 mph4.8 kmh 29.88 in1011.9 mb - 0.00 in0.0 mm 0.00 in0.0 mm
06:00 AM 55.3°F12.9°C 53.6°F12.0°C 94% 0.1 mph NW0.2 kmh NW 3.0 mph4.8 kmh 29.88 in1011.9 mb - 0.00 in0.0 mm 0.00 in0.0 mm
05:50 AM 55.5°F13.1°C 53.8°F12.1°C 94% 0.4 mph NNW0.6 kmh NNW 1.0 mph1.6 kmh 29.88 in1011.9 mb - 0.00 in0.0 mm 0.00 in0.0 mm
05:40 AM 55.5°F13.1°C 53.8°F12.1°C 94% 0.1 mph NNW0.2 kmh NNW 1.0 mph1.6 kmh 29.87 in1011.5 mb - 0.00 in0.0 mm 0.00 in0.0 mm
05:30 AM 55.5°F13.1°C 53.8°F12.1°C 94% 0.4 mph NNW0.6 kmh NNW 2.0 mph3.2 kmh 29.87 in1011.5 mb - 0.00 in0.0 mm 0.00 in0.0 mm
05:20 AM 55.5°F13.1°C 53.8°F12.1°C 94% 0.3 mph NW0.5 kmh NW 1.0 mph1.6 kmh 29.87 in1011.5 mb - 0.00 in0.0 mm 0.00 in0.0 mm
05:10 AM 55.5°F13.1°C 53.8°F12.1°C 94% Calm Calm -- 29.87 in1011.5 mb - 0.00 in0.0 mm 0.00 in0.0 mm
05:00 AM 55.6°F13.1°C 53.9°F12.2°C 94% Calm Calm -- 29.87 in1011.5 mb - 0.00 in0.0 mm 0.00 in0.0 mm
04:50 AM 55.7°F13.2°C 53.7°F12.1°C 93% 0.1 mph NW0.2 kmh NW 1.0 mph1.6 kmh 29.87 in1011.5 mb - 0.00 in0.0 mm 0.00 in0.0 mm
04:40 AM 55.8°F13.2°C 53.8°F12.1°C 93% 0.4 mph NW0.6 kmh NW 1.0 mph1.6 kmh 29.87 in1011.5 mb - 0.00 in0.0 mm 0.00 in0.0 mm
04:30 AM 55.9°F13.3°C 53.9°F12.2°C 93% Calm Calm -- 29.87 in1011.5 mb - 0.00 in0.0 mm 0.00 in0.0 mm
04:20 AM 56.0°F13.3°C 54.0°F12.2°C 93% 0.5 mph NW0.8 kmh NW 1.0 mph1.6 kmh 29.87 in1011.5 mb - 0.00 in0.0 mm 0.00 in0.0 mm
04:10 AM 56.0°F13.3°C 54.0°F12.2°C 93% 0.5 mph NW0.8 kmh NW 1.0 mph1.6 kmh 29.87 in1011.5 mb - 0.00 in0.0 mm 0.00 in0.0 mm
04:00 AM 55.9°F13.3°C 54.0°F12.2°C 93% 0.6 mph NW1.0 kmh NW 2.0 mph3.2 kmh 29.87 in1011.5 mb - 0.00 in0.0 mm 0.00 in0.0 mm
03:50 AM 55.8°F13.2°C 53.8°F12.1°C 93% 1.2 mph NW1.9 kmh NW 2.0 mph3.2 kmh 29.87 in1011.5 mb - 0.00 in0.0 mm 0.00 in0.0 mm
03:40 AM 55.7°F13.2°C 53.7°F12.1°C 93% 0.1 mph NW0.2 kmh NW -- 29.87 in1011.5 mb - 0.00 in0.0 mm 0.00 in0.0 mm
03:30 AM 55.7°F13.2°C 53.7°F12.1°C 93% 0.2 mph NW0.3 kmh NW 1.0 mph1.6 kmh 29.87 in1011.5 mb - 0.00 in0.0 mm 0.00 in0.0 mm
03:20 AM 55.7°F13.2°C 53.7°F12.1°C 93% 0.1 mph NW0.2 kmh NW 1.0 mph1.6 kmh 29.87 in1011.5 mb - 0.00 in0.0 mm 0.00 in0.0 mm
03:10 AM 55.8°F13.2°C 53.8°F12.1°C 93% 0.2 mph NW0.3 kmh NW 1.0 mph1.6 kmh 29.87 in1011.5 mb - 0.00 in0.0 mm 0.00 in0.0 mm
03:00 AM 56.0°F13.3°C 53.7°F12.1°C 92% 0.1 mph WSW0.2 kmh WSW 1.0 mph1.6 kmh 29.86 in1011.2 mb - 0.00 in0.0 mm 0.00 in0.0 mm
02:50 AM 56.2°F13.4°C 53.9°F12.2°C 92% 0.3 mph N0.5 kmh N 3.0 mph4.8 kmh 29.86 in1011.2 mb - 0.00 in0.0 mm 0.00 in0.0 mm
02:40 AM 56.4°F13.6°C 54.1°F12.3°C 92% 0.7 mph NNW1.1 kmh NNW 2.0 mph3.2 kmh 29.86 in1011.2 mb - 0.00 in0.0 mm 0.00 in0.0 mm
02:30 AM 56.6°F13.7°C 54.3°F12.4°C 92% 0.4 mph NNW0.6 kmh NNW 1.0 mph1.6 kmh 29.86 in1011.2 mb - 0.00 in0.0 mm 0.00 in0.0 mm
02:20 AM 56.7°F13.7°C 54.1°F12.3°C 91% 0.2 mph NNW0.3 kmh NNW 2.0 mph3.2 kmh 29.86 in1011.2 mb - 0.00 in0.0 mm 0.00 in0.0 mm
02:10 AM 56.8°F13.8°C 54.2°F12.3°C 91% 0.1 mph NW0.2 kmh NW 3.0 mph4.8 kmh 29.86 in1011.2 mb - 0.00 in0.0 mm 0.00 in0.0 mm
02:00 AM 57.0°F13.9°C 54.4°F12.4°C 91% 0.7 mph NW1.1 kmh NW 3.0 mph4.8 kmh 29.86 in1011.2 mb - 0.00 in0.0 mm 0.00 in0.0 mm
01:50 AM 57.2°F14.0°C 54.6°F12.6°C 91% 0.5 mph NW0.8 kmh NW 2.0 mph3.2 kmh 29.87 in1011.5 mb - 0.00 in0.0 mm 0.00 in0.0 mm
01:40 AM 57.3°F14.1°C 54.7°F12.6°C 91% Calm Calm 1.0 mph1.6 kmh 29.87 in1011.5 mb - 0.00 in0.0 mm 0.00 in0.0 mm
01:30 AM 57.4°F14.1°C 54.8°F12.7°C 91% 0.2 mph NNW0.3 kmh NNW 2.0 mph3.2 kmh 29.87 in1011.5 mb - 0.00 in0.0 mm 0.00 in0.0 mm
01:20 AM 57.6°F14.2°C 54.7°F12.6°C 90% Calm Calm -- 29.87 in1011.5 mb - 0.00 in0.0 mm 0.00 in0.0 mm
01:10 AM 57.6°F14.2°C 54.7°F12.6°C 90% Calm Calm -- 29.87 in1011.5 mb - 0.00 in0.0 mm 0.00 in0.0 mm